sensor_id;sensor_type;location;lat;lon;timestamp;temperature;humidity
61591;DHT22;57639;52.410;-1.966;2022-12-01T00:01:00;17.50;53.10
61591;DHT22;57639;52.410;-1.966;2022-12-01T00:04:04;17.50;53.00
61591;DHT22;57639;52.410;-1.966;2022-12-01T00:07:13;17.60;53.00
61591;DHT22;57639;52.410;-1.966;2022-12-01T00:10:17;17.50;52.90
61591;DHT22;57639;52.410;-1.966;2022-12-01T00:13:33;17.50;53.00
61591;DHT22;57639;52.410;-1.966;2022-12-01T00:16:39;17.40;53.10
61591;DHT22;57639;52.410;-1.966;2022-12-01T00:19:48;17.40;53.10
61591;DHT22;57639;52.410;-1.966;2022-12-01T00:22:55;17.30;53.10
61591;DHT22;57639;52.410;-1.966;2022-12-01T00:26:04;17.30;53.10
61591;DHT22;57639;52.410;-1.966;2022-12-01T00:29:08;17.30;53.20
61591;DHT22;57639;52.410;-1.966;2022-12-01T00:32:14;17.30;53.10
61591;DHT22;57639;52.410;-1.966;2022-12-01T00:35:18;17.20;53.10
61591;DHT22;57639;52.410;-1.966;2022-12-01T00:38:27;17.20;53.20
61591;DHT22;57639;52.410;-1.966;2022-12-01T00:41:31;17.20;53.20
61591;DHT22;57639;52.410;-1.966;2022-12-01T00:44:37;17.10;53.20
61591;DHT22;57639;52.410;-1.966;2022-12-01T00:47:41;17.10;53.20
61591;DHT22;57639;52.410;-1.966;2022-12-01T00:50:49;17.10;53.30
61591;DHT22;57639;52.410;-1.966;2022-12-01T00:53:56;17.10;53.30
61591;DHT22;57639;52.410;-1.966;2022-12-01T00:57:03;17.10;53.30
61591;DHT22;57639;52.410;-1.966;2022-12-01T01:00:08;17.10;53.30
61591;DHT22;57639;52.410;-1.966;2022-12-01T01:03:16;17.00;53.30
61591;DHT22;57639;52.410;-1.966;2022-12-01T01:06:20;17.00;53.40
61591;DHT22;57639;52.410;-1.966;2022-12-01T01:09:30;17.00;53.30
61591;DHT22;57639;52.410;-1.966;2022-12-01T01:12:34;17.00;53.40
61591;DHT22;57639;52.410;-1.966;2022-12-01T01:15:41;17.00;53.20
61591;DHT22;57639;52.410;-1.966;2022-12-01T01:18:45;16.90;53.30
61591;DHT22;57639;52.410;-1.966;2022-12-01T01:21:51;16.90;53.30
61591;DHT22;57639;52.410;-1.966;2022-12-01T01:25:00;17.00;53.30
61591;DHT22;57639;52.410;-1.966;2022-12-01T01:28:06;17.00;53.30
61591;DHT22;57639;52.410;-1.966;2022-12-01T01:31:12;16.90;53.30
61591;DHT22;57639;52.410;-1.966;2022-12-01T01:34:18;16.90;53.40
61591;DHT22;57639;52.410;-1.966;2022-12-01T01:37:22;16.90;53.30
61591;DHT22;57639;52.410;-1.966;2022-12-01T01:40:31;16.90;53.30
61591;DHT22;57639;52.410;-1.966;2022-12-01T01:43:41;16.90;53.20
61591;DHT22;57639;52.410;-1.966;2022-12-01T01:46:47;16.80;53.30
61591;DHT22;57639;52.410;-1.966;2022-12-01T01:49:52;16.90;53.20
61591;DHT22;57639;52.410;-1.966;2022-12-01T01:53:01;16.80;53.30
61591;DHT22;57639;52.410;-1.966;2022-12-01T01:56:09;16.80;53.30
61591;DHT22;57639;52.410;-1.966;2022-12-01T01:59:18;16.80;53.30
61591;DHT22;57639;52.410;-1.966;2022-12-01T02:02:23;16.70;53.30
61591;DHT22;57639;52.410;-1.966;2022-12-01T02:05:32;16.70;53.30
61591;DHT22;57639;52.410;-1.966;2022-12-01T02:08:38;16.70;53.40
61591;DHT22;57639;52.410;-1.966;2022-12-01T02:11:57;16.70;53.40
61591;DHT22;57639;52.410;-1.966;2022-12-01T02:15:14;16.70;53.40
61591;DHT22;57639;52.410;-1.966;2022-12-01T02:18:29;16.70;53.40
61591;DHT22;57639;52.410;-1.966;2022-12-01T02:21:48;16.70;53.40
61591;DHT22;57639;52.410;-1.966;2022-12-01T02:25:20;16.60;53.40
61591;DHT22;57639;52.410;-1.966;2022-12-01T02:28:47;16.60;53.40
61591;DHT22;57639;52.410;-1.966;2022-12-01T02:32:07;16.60;53.50
61591;DHT22;57639;52.410;-1.966;2022-12-01T02:35:18;16.60;53.50
61591;DHT22;57639;52.410;-1.966;2022-12-01T02:38:29;16.60;53.50
61591;DHT22;57639;52.410;-1.966;2022-12-01T02:41:42;16.60;53.50
61591;DHT22;57639;52.410;-1.966;2022-12-01T02:44:48;16.60;53.50
61591;DHT22;57639;52.410;-1.966;2022-12-01T02:48:00;16.60;53.50
61591;DHT22;57639;52.410;-1.966;2022-12-01T02:51:07;16.60;53.50
61591;DHT22;57639;52.410;-1.966;2022-12-01T02:54:14;16.60;53.50
61591;DHT22;57639;52.410;-1.966;2022-12-01T02:57:19;16.60;53.40
61591;DHT22;57639;52.410;-1.966;2022-12-01T03:00:25;16.60;53.40
61591;DHT22;57639;52.410;-1.966;2022-12-01T03:03:46;16.60;53.40
61591;DHT22;57639;52.410;-1.966;2022-12-01T03:06:57;16.60;53.40
61591;DHT22;57639;52.410;-1.966;2022-12-01T03:10:10;16.60;53.30
61591;DHT22;57639;52.410;-1.966;2022-12-01T03:13:23;16.60;53.40
61591;DHT22;57639;52.410;-1.966;2022-12-01T03:16:40;16.60;53.40
61591;DHT22;57639;52.410;-1.966;2022-12-01T03:19:57;16.60;53.40
61591;DHT22;57639;52.410;-1.966;2022-12-01T03:23:06;16.60;53.30
61591;DHT22;57639;52.410;-1.966;2022-12-01T03:26:13;16.60;53.40
61591;DHT22;57639;52.410;-1.966;2022-12-01T03:29:23;16.50;53.50
61591;DHT22;57639;52.410;-1.966;2022-12-01T03:32:34;16.40;53.60
61591;DHT22;57639;52.410;-1.966;2022-12-01T03:35:44;16.50;53.70
61591;DHT22;57639;52.410;-1.966;2022-12-01T03:38:55;16.40;53.60
61591;DHT22;57639;52.410;-1.966;2022-12-01T03:42:07;16.40;53.70
61591;DHT22;57639;52.410;-1.966;2022-12-01T03:45:20;16.30;53.70
61591;DHT22;57639;52.410;-1.966;2022-12-01T03:48:27;16.40;53.80
61591;DHT22;57639;52.410;-1.966;2022-12-01T03:51:42;16.30;53.70
61591;DHT22;57639;52.410;-1.966;2022-12-01T03:54:57;16.30;53.80
61591;DHT22;57639;52.410;-1.966;2022-12-01T03:58:10;16.30;53.70
61591;DHT22;57639;52.410;-1.966;2022-12-01T04:01:15;16.30;53.70
61591;DHT22;57639;52.410;-1.966;2022-12-01T04:04:22;16.30;53.70
61591;DHT22;57639;52.410;-1.966;2022-12-01T04:07:29;16.30;53.70
61591;DHT22;57639;52.410;-1.966;2022-12-01T04:10:35;16.30;53.70
61591;DHT22;57639;52.410;-1.966;2022-12-01T04:13:39;16.30;53.70
61591;DHT22;57639;52.410;-1.966;2022-12-01T04:16:42;16.30;53.70
61591;DHT22;57639;52.410;-1.966;2022-12-01T04:19:46;16.20;53.70
61591;DHT22;57639;52.410;-1.966;2022-12-01T04:22:55;16.30;53.70
61591;DHT22;57639;52.410;-1.966;2022-12-01T04:26:00;16.30;53.70
61591;DHT22;57639;52.410;-1.966;2022-12-01T04:29:07;16.20;53.70
61591;DHT22;57639;52.410;-1.966;2022-12-01T04:32:12;16.20;53.70
61591;DHT22;57639;52.410;-1.966;2022-12-01T04:35:18;16.30;53.70
61591;DHT22;57639;52.410;-1.966;2022-12-01T04:38:25;16.30;53.60
61591;DHT22;57639;52.410;-1.966;2022-12-01T04:41:31;16.30;53.60
61591;DHT22;57639;52.410;-1.966;2022-12-01T04:44:35;16.30;53.50
61591;DHT22;57639;52.410;-1.966;2022-12-01T04:47:41;16.30;53.60
61591;DHT22;57639;52.410;-1.966;2022-12-01T04:50:48;16.30;53.50
61591;DHT22;57639;52.410;-1.966;2022-12-01T04:53:57;16.30;53.50
61591;DHT22;57639;52.410;-1.966;2022-12-01T04:57:08;16.30;53.50
61591;DHT22;57639;52.410;-1.966;2022-12-01T05:00:15;16.30;53.50
61591;DHT22;57639;52.410;-1.966;2022-12-01T05:03:21;16.30;53.40
61591;DHT22;57639;52.410;-1.966;2022-12-01T05:06:26;16.20;53.50
61591;DHT22;57639;52.410;-1.966;2022-12-01T05:09:35;16.20;53.50
61591;DHT22;57639;52.410;-1.966;2022-12-01T05:12:39;16.20;53.60
61591;DHT22;57639;52.410;-1.966;2022-12-01T05:15:45;16.20;53.60
61591;DHT22;57639;52.410;-1.966;2022-12-01T05:18:51;16.10;53.60
61591;DHT22;57639;52.410;-1.966;2022-12-01T05:22:17;16.10;53.70
61591;DHT22;57639;52.410;-1.966;2022-12-01T05:25:21;16.10;53.70
61591;DHT22;57639;52.410;-1.966;2022-12-01T05:28:27;16.10;53.70
61591;DHT22;57639;52.410;-1.966;2022-12-01T05:31:31;16.10;53.70
61591;DHT22;57639;52.410;-1.966;2022-12-01T05:34:37;16.10;53.70
61591;DHT22;57639;52.410;-1.966;2022-12-01T05:37:41;16.10;53.70
61591;DHT22;57639;52.410;-1.966;2022-12-01T05:40:54;16.10;53.70
61591;DHT22;57639;52.410;-1.966;2022-12-01T05:43:58;16.10;53.80
61591;DHT22;57639;52.410;-1.966;2022-12-01T05:47:04;16.10;53.80
61591;DHT22;57639;52.410;-1.966;2022-12-01T05:50:09;16.10;53.80
61591;DHT22;57639;52.410;-1.966;2022-12-01T05:53:16;16.10;53.80
61591;DHT22;57639;52.410;-1.966;2022-12-01T05:56:23;16.10;53.80
61591;DHT22;57639;52.410;-1.966;2022-12-01T05:59:29;16.00;53.80
61591;DHT22;57639;52.410;-1.966;2022-12-01T06:02:33;16.00;53.80
61591;DHT22;57639;52.410;-1.966;2022-12-01T06:05:39;16.00;53.80
61591;DHT22;57639;52.410;-1.966;2022-12-01T06:08:44;16.00;53.80
61591;DHT22;57639;52.410;-1.966;2022-12-01T06:11:53;16.00;53.80
61591;DHT22;57639;52.410;-1.966;2022-12-01T06:14:57;16.00;53.80
61591;DHT22;57639;52.410;-1.966;2022-12-01T06:18:03;16.00;53.80
61591;DHT22;57639;52.410;-1.966;2022-12-01T06:21:16;16.00;53.80
61591;DHT22;57639;52.410;-1.966;2022-12-01T06:24:25;16.00;53.80
61591;DHT22;57639;52.410;-1.966;2022-12-01T06:27:32;16.00;53.80
61591;DHT22;57639;52.410;-1.966;2022-12-01T06:30:38;16.00;53.70
61591;DHT22;57639;52.410;-1.966;2022-12-01T06:33:42;16.00;53.70
61591;DHT22;57639;52.410;-1.966;2022-12-01T06:36:49;16.00;53.70
61591;DHT22;57639;52.410;-1.966;2022-12-01T06:39:53;16.00;53.70
61591;DHT22;57639;52.410;-1.966;2022-12-01T06:43:03;16.00;53.80
61591;DHT22;57639;52.410;-1.966;2022-12-01T06:46:26;16.00;53.80
61591;DHT22;57639;52.410;-1.966;2022-12-01T06:49:32;16.10;54.00
61591;DHT22;57639;52.410;-1.966;2022-12-01T06:52:36;16.20;53.90
61591;DHT22;57639;52.410;-1.966;2022-12-01T06:55:42;16.30;53.50
61591;DHT22;57639;52.410;-1.966;2022-12-01T06:58:49;16.60;53.20
61591;DHT22;57639;52.410;-1.966;2022-12-01T07:01:55;16.80;52.80
61591;DHT22;57639;52.410;-1.966;2022-12-01T07:05:00;17.00;52.40
61591;DHT22;57639;52.410;-1.966;2022-12-01T07:08:06;17.20;52.10
61591;DHT22;57639;52.410;-1.966;2022-12-01T07:11:13;17.30;51.70
61591;DHT22;57639;52.410;-1.966;2022-12-01T07:14:26;17.60;51.60
61591;DHT22;57639;52.410;-1.966;2022-12-01T07:17:31;17.70;51.20
61591;DHT22;57639;52.410;-1.966;2022-12-01T07:20:37;17.80;50.90
61591;DHT22;57639;52.410;-1.966;2022-12-01T07:23:41;17.90;50.80
61591;DHT22;57639;52.410;-1.966;2022-12-01T07:26:50;18.00;50.70
61591;DHT22;57639;52.410;-1.966;2022-12-01T07:29:58;18.10;50.60
61591;DHT22;57639;52.410;-1.966;2022-12-01T07:33:05;18.10;50.50
61591;DHT22;57639;52.410;-1.966;2022-12-01T07:36:12;18.10;50.40
61591;DHT22;57639;52.410;-1.966;2022-12-01T07:39:22;18.10;50.30
61591;DHT22;57639;52.410;-1.966;2022-12-01T07:42:31;18.10;50.20
61591;DHT22;57639;52.410;-1.966;2022-12-01T07:45:40;18.10;50.30
61591;DHT22;57639;52.410;-1.966;2022-12-01T07:48:45;18.10;50.30
61591;DHT22;57639;52.410;-1.966;2022-12-01T07:51:51;18.00;50.40
61591;DHT22;57639;52.410;-1.966;2022-12-01T07:54:55;18.00;50.60
61591;DHT22;57639;52.410;-1.966;2022-12-01T07:58:01;17.90;50.60
61591;DHT22;57639;52.410;-1.966;2022-12-01T08:01:10;17.90;50.70
61591;DHT22;57639;52.410;-1.966;2022-12-01T08:04:16;17.80;50.70
61591;DHT22;57639;52.410;-1.966;2022-12-01T08:07:20;17.80;50.80
61591;DHT22;57639;52.410;-1.966;2022-12-01T08:10:26;17.70;51.00
61591;DHT22;57639;52.410;-1.966;2022-12-01T08:13:31;17.70;51.10
61591;DHT22;57639;52.410;-1.966;2022-12-01T08:16:40;17.70;51.20
61591;DHT22;57639;52.410;-1.966;2022-12-01T08:19:44;17.70;51.40
61591;DHT22;57639;52.410;-1.966;2022-12-01T08:22:50;17.80;51.50
61591;DHT22;57639;52.410;-1.966;2022-12-01T08:25:54;17.80;51.90
61591;DHT22;57639;52.410;-1.966;2022-12-01T08:29:00;17.80;52.10
61591;DHT22;57639;52.410;-1.966;2022-12-01T08:32:07;17.80;52.20
61591;DHT22;57639;52.410;-1.966;2022-12-01T08:35:13;17.90;52.30
61591;DHT22;57639;52.410;-1.966;2022-12-01T08:38:18;18.00;52.30
61591;DHT22;57639;52.410;-1.966;2022-12-01T08:41:24;18.00;52.20
61591;DHT22;57639;52.410;-1.966;2022-12-01T08:44:28;18.00;52.20
61591;DHT22;57639;52.410;-1.966;2022-12-01T08:47:37;18.00;52.20
61591;DHT22;57639;52.410;-1.966;2022-12-01T08:50:44;18.00;52.30
61591;DHT22;57639;52.410;-1.966;2022-12-01T08:53:50;18.00;52.40
61591;DHT22;57639;52.410;-1.966;2022-12-01T08:56:54;18.00;52.50
61591;DHT22;57639;52.410;-1.966;2022-12-01T09:00:01;18.00;52.20
61591;DHT22;57639;52.410;-1.966;2022-12-01T09:03:08;18.00;52.60
61591;DHT22;57639;52.410;-1.966;2022-12-01T09:06:16;17.90;52.60
61591;DHT22;57639;52.410;-1.966;2022-12-01T09:09:22;17.90;52.50
61591;DHT22;57639;52.410;-1.966;2022-12-01T09:12:29;17.80;52.40
61591;DHT22;57639;52.410;-1.966;2022-12-01T09:15:32;17.80;52.40
61591;DHT22;57639;52.410;-1.966;2022-12-01T09:18:42;17.80;52.10
61591;DHT22;57639;52.410;-1.966;2022-12-01T09:21:49;17.70;52.40
61591;DHT22;57639;52.410;-1.966;2022-12-01T09:24:55;17.60;52.20
61591;DHT22;57639;52.410;-1.966;2022-12-01T09:27:59;17.60;52.60
61591;DHT22;57639;52.410;-1.966;2022-12-01T09:31:06;17.60;52.60
61591;DHT22;57639;52.410;-1.966;2022-12-01T09:34:15;17.50;52.70
61591;DHT22;57639;52.410;-1.966;2022-12-01T09:37:22;17.60;52.60
61591;DHT22;57639;52.410;-1.966;2022-12-01T09:40:36;17.60;52.50
61591;DHT22;57639;52.410;-1.966;2022-12-01T09:43:46;17.60;52.80
61591;DHT22;57639;52.410;-1.966;2022-12-01T09:46:56;17.60;53.30
61591;DHT22;57639;52.410;-1.966;2022-12-01T09:50:11;17.70;53.50
61591;DHT22;57639;52.410;-1.966;2022-12-01T09:53:20;17.70;53.40
61591;DHT22;57639;52.410;-1.966;2022-12-01T09:56:28;17.80;53.30
61591;DHT22;57639;52.410;-1.966;2022-12-01T09:59:37;17.90;53.20
61591;DHT22;57639;52.410;-1.966;2022-12-01T10:02:49;18.00;53.00
61591;DHT22;57639;52.410;-1.966;2022-12-01T10:06:00;18.00;52.80
61591;DHT22;57639;52.410;-1.966;2022-12-01T10:09:17;18.10;52.60
61591;DHT22;57639;52.410;-1.966;2022-12-01T10:12:24;18.10;52.50
61591;DHT22;57639;52.410;-1.966;2022-12-01T10:15:38;18.10;52.30
61591;DHT22;57639;52.410;-1.966;2022-12-01T10:18:51;18.10;52.20
61591;DHT22;57639;52.410;-1.966;2022-12-01T10:22:20;18.10;52.20
61591;DHT22;57639;52.410;-1.966;2022-12-01T10:25:26;18.20;52.10
61591;DHT22;57639;52.410;-1.966;2022-12-01T10:28:56;18.10;52.10
61591;DHT22;57639;52.410;-1.966;2022-12-01T10:32:09;18.10;52.00
61591;DHT22;57639;52.410;-1.966;2022-12-01T10:35:24;18.10;52.00
61591;DHT22;57639;52.410;-1.966;2022-12-01T10:38:34;18.10;52.10
61591;DHT22;57639;52.410;-1.966;2022-12-01T10:41:41;18.10;52.10
61591;DHT22;57639;52.410;-1.966;2022-12-01T10:44:46;18.10;52.10
61591;DHT22;57639;52.410;-1.966;2022-12-01T10:48:17;18.00;52.20
61591;DHT22;57639;52.410;-1.966;2022-12-01T10:51:23;18.00;52.30
61591;DHT22;57639;52.410;-1.966;2022-12-01T10:54:35;17.90;52.40
61591;DHT22;57639;52.410;-1.966;2022-12-01T10:57:44;18.00;52.40
61591;DHT22;57639;52.410;-1.966;2022-12-01T11:04:01;18.10;52.30
61591;DHT22;57639;52.410;-1.966;2022-12-01T11:07:15;18.10;52.20
61591;DHT22;57639;52.410;-1.966;2022-12-01T11:10:25;18.10;52.10
61591;DHT22;57639;52.410;-1.966;2022-12-01T11:13:34;18.20;52.00
61591;DHT22;57639;52.410;-1.966;2022-12-01T11:16:40;18.20;51.90
61591;DHT22;57639;52.410;-1.966;2022-12-01T11:19:47;18.20;51.80
61591;DHT22;57639;52.410;-1.966;2022-12-01T11:22:52;18.30;51.70
61591;DHT22;57639;52.410;-1.966;2022-12-01T11:26:05;18.30;51.70
61591;DHT22;57639;52.410;-1.966;2022-12-01T11:29:25;18.40;51.60
61591;DHT22;57639;52.410;-1.966;2022-12-01T11:32:34;18.30;51.50
61591;DHT22;57639;52.410;-1.966;2022-12-01T11:35:46;18.40;51.50
61591;DHT22;57639;52.410;-1.966;2022-12-01T11:38:56;18.30;51.50
61591;DHT22;57639;52.410;-1.966;2022-12-01T11:42:12;18.30;51.50
61591;DHT22;57639;52.410;-1.966;2022-12-01T11:45:25;18.30;51.60
61591;DHT22;57639;52.410;-1.966;2022-12-01T11:48:34;18.20;51.70
61591;DHT22;57639;52.410;-1.966;2022-12-01T11:51:41;18.10;52.00
61591;DHT22;57639;52.410;-1.966;2022-12-01T11:54:57;18.10;52.00
61591;DHT22;57639;52.410;-1.966;2022-12-01T11:58:07;18.10;52.00
61591;DHT22;57639;52.410;-1.966;2022-12-01T12:01:16;18.10;52.00
61591;DHT22;57639;52.410;-1.966;2022-12-01T12:04:38;18.00;52.10
61591;DHT22;57639;52.410;-1.966;2022-12-01T12:07:53;18.00;52.20
61591;DHT22;57639;52.410;-1.966;2022-12-01T12:11:13;18.10;52.10
61591;DHT22;57639;52.410;-1.966;2022-12-01T12:14:43;18.10;52.00
61591;DHT22;57639;52.410;-1.966;2022-12-01T12:18:04;18.20;51.90
61591;DHT22;57639;52.410;-1.966;2022-12-01T12:21:14;18.20;51.70
61591;DHT22;57639;52.410;-1.966;2022-12-01T12:24:38;18.30;51.70
61591;DHT22;57639;52.410;-1.966;2022-12-01T12:27:48;18.30;51.60
61591;DHT22;57639;52.410;-1.966;2022-12-01T12:31:05;18.40;51.50
61591;DHT22;57639;52.410;-1.966;2022-12-01T12:34:20;18.40;51.30
61591;DHT22;57639;52.410;-1.966;2022-12-01T12:37:41;18.40;51.30
61591;DHT22;57639;52.410;-1.966;2022-12-01T12:40:53;18.40;51.20
61591;DHT22;57639;52.410;-1.966;2022-12-01T12:44:23;18.40;51.20
61591;DHT22;57639;52.410;-1.966;2022-12-01T12:47:48;18.40;51.10
61591;DHT22;57639;52.410;-1.966;2022-12-01T12:51:06;18.40;51.20
61591;DHT22;57639;52.410;-1.966;2022-12-01T12:54:21;18.40;51.20
61591;DHT22;57639;52.410;-1.966;2022-12-01T12:57:32;18.30;51.30
61591;DHT22;57639;52.410;-1.966;2022-12-01T13:00:45;18.30;51.40
61591;DHT22;57639;52.410;-1.966;2022-12-01T13:04:00;18.20;51.50
61591;DHT22;57639;52.410;-1.966;2022-12-01T13:07:23;18.30;52.40
61591;DHT22;57639;52.410;-1.966;2022-12-01T13:10:38;18.20;52.40
61591;DHT22;57639;52.410;-1.966;2022-12-01T13:13:52;18.20;52.80
61591;DHT22;57639;52.410;-1.966;2022-12-01T13:17:04;18.30;53.00
61591;DHT22;57639;52.410;-1.966;2022-12-01T13:20:18;18.20;53.00
61591;DHT22;57639;52.410;-1.966;2022-12-01T13:23:32;18.20;53.00
61591;DHT22;57639;52.410;-1.966;2022-12-01T13:26:40;18.10;53.20
61591;DHT22;57639;52.410;-1.966;2022-12-01T13:29:57;18.10;53.30
61591;DHT22;57639;52.410;-1.966;2022-12-01T13:33:02;18.10;53.20
61591;DHT22;57639;52.410;-1.966;2022-12-01T13:36:15;18.10;53.20
61591;DHT22;57639;52.410;-1.966;2022-12-01T13:39:21;18.00;53.30
61591;DHT22;57639;52.410;-1.966;2022-12-01T13:42:28;18.00;53.60
61591;DHT22;57639;52.410;-1.966;2022-12-01T13:45:37;17.90;53.30
61591;DHT22;57639;52.410;-1.966;2022-12-01T13:48:52;18.00;53.30
61591;DHT22;57639;52.410;-1.966;2022-12-01T13:52:29;18.00;53.20
61591;DHT22;57639;52.410;-1.966;2022-12-01T13:55:54;18.10;53.00
61591;DHT22;57639;52.410;-1.966;2022-12-01T13:58:58;18.10;52.70
61591;DHT22;57639;52.410;-1.966;2022-12-01T14:02:18;18.10;52.50
61591;DHT22;57639;52.410;-1.966;2022-12-01T14:05:42;18.20;52.30
61591;DHT22;57639;52.410;-1.966;2022-12-01T14:08:53;18.30;52.10
61591;DHT22;57639;52.410;-1.966;2022-12-01T14:15:59;18.40;51.90
61591;DHT22;57639;52.410;-1.966;2022-12-01T14:19:04;18.40;51.90
61591;DHT22;57639;52.410;-1.966;2022-12-01T14:22:32;18.40;51.80
61591;DHT22;57639;52.410;-1.966;2022-12-01T14:25:40;18.50;51.70
61591;DHT22;57639;52.410;-1.966;2022-12-01T14:29:20;18.40;51.70
61591;DHT22;57639;52.410;-1.966;2022-12-01T14:32:26;18.50;51.60
61591;DHT22;57639;52.410;-1.966;2022-12-01T14:35:33;18.40;51.60
61591;DHT22;57639;52.410;-1.966;2022-12-01T14:38:37;18.40;51.60
61591;DHT22;57639;52.410;-1.966;2022-12-01T14:41:49;18.40;51.60
61591;DHT22;57639;52.410;-1.966;2022-12-01T14:44:54;18.30;51.60
61591;DHT22;57639;52.410;-1.966;2022-12-01T14:48:01;18.30;51.70
61591;DHT22;57639;52.410;-1.966;2022-12-01T14:51:12;18.30;51.80
61591;DHT22;57639;52.410;-1.966;2022-12-01T14:54:24;18.30;51.70
61591;DHT22;57639;52.410;-1.966;2022-12-01T14:57:36;18.20;51.90
61591;DHT22;57639;52.410;-1.966;2022-12-01T15:00:59;18.10;51.90
61591;DHT22;57639;52.410;-1.966;2022-12-01T15:04:05;18.10;52.00
61591;DHT22;57639;52.410;-1.966;2022-12-01T15:07:19;18.10;52.00
61591;DHT22;57639;52.410;-1.966;2022-12-01T15:10:25;18.10;52.20
61591;DHT22;57639;52.410;-1.966;2022-12-01T15:13:46;18.00;52.20
61591;DHT22;57639;52.410;-1.966;2022-12-01T15:16:51;18.00;52.40
61591;DHT22;57639;52.410;-1.966;2022-12-01T15:19:57;17.90;52.40
61591;DHT22;57639;52.410;-1.966;2022-12-01T15:23:15;18.00;52.60
61591;DHT22;57639;52.410;-1.966;2022-12-01T15:26:23;18.00;52.40
61591;DHT22;57639;52.410;-1.966;2022-12-01T15:29:31;18.00;52.20
61591;DHT22;57639;52.410;-1.966;2022-12-01T15:32:41;18.10;52.10
61591;DHT22;57639;52.410;-1.966;2022-12-01T15:35:47;18.10;51.90
61591;DHT22;57639;52.410;-1.966;2022-12-01T15:38:53;18.20;51.70
61591;DHT22;57639;52.410;-1.966;2022-12-01T15:41:59;18.30;51.70
61591;DHT22;57639;52.410;-1.966;2022-12-01T15:45:19;18.30;51.50
61591;DHT22;57639;52.410;-1.966;2022-12-01T15:48:33;18.30;51.70
61591;DHT22;57639;52.410;-1.966;2022-12-01T15:51:42;18.30;51.80
61591;DHT22;57639;52.410;-1.966;2022-12-01T15:54:47;18.20;52.00
61591;DHT22;57639;52.410;-1.966;2022-12-01T15:57:55;18.20;52.00
61591;DHT22;57639;52.410;-1.966;2022-12-01T16:01:04;18.20;51.90
61591;DHT22;57639;52.410;-1.966;2022-12-01T16:04:22;18.20;51.90
61591;DHT22;57639;52.410;-1.966;2022-12-01T16:07:31;18.20;51.80
61591;DHT22;57639;52.410;-1.966;2022-12-01T16:10:37;18.20;51.90
61591;DHT22;57639;52.410;-1.966;2022-12-01T16:13:44;18.10;51.90
61591;DHT22;57639;52.410;-1.966;2022-12-01T16:16:55;18.10;52.00
61591;DHT22;57639;52.410;-1.966;2022-12-01T16:20:17;18.10;52.10
61591;DHT22;57639;52.410;-1.966;2022-12-01T16:23:24;18.00;51.90
61591;DHT22;57639;52.410;-1.966;2022-12-01T16:26:29;18.00;51.90
61591;DHT22;57639;52.410;-1.966;2022-12-01T16:29:47;17.90;52.00
61591;DHT22;57639;52.410;-1.966;2022-12-01T16:33:00;17.90;52.00
61591;DHT22;57639;52.410;-1.966;2022-12-01T16:36:07;17.80;52.00
61591;DHT22;57639;52.410;-1.966;2022-12-01T16:39:11;17.80;52.10
61591;DHT22;57639;52.410;-1.966;2022-12-01T16:42:21;17.80;52.20
61591;DHT22;57639;52.410;-1.966;2022-12-01T16:45:25;17.80;52.20
61591;DHT22;57639;52.410;-1.966;2022-12-01T16:48:34;17.70;52.20
61591;DHT22;57639;52.410;-1.966;2022-12-01T16:51:38;17.70;52.30
61591;DHT22;57639;52.410;-1.966;2022-12-01T16:54:47;17.70;52.40
61591;DHT22;57639;52.410;-1.966;2022-12-01T16:57:52;17.60;52.40
61591;DHT22;57639;52.410;-1.966;2022-12-01T17:00:58;17.60;52.40
61591;DHT22;57639;52.410;-1.966;2022-12-01T17:04:05;17.60;52.40
61591;DHT22;57639;52.410;-1.966;2022-12-01T17:07:11;17.60;52.40
61591;DHT22;57639;52.410;-1.966;2022-12-01T17:10:16;17.60;52.70
61591;DHT22;57639;52.410;-1.966;2022-12-01T17:13:22;17.50;52.70
61591;DHT22;57639;52.410;-1.966;2022-12-01T17:16:27;17.50;53.00
61591;DHT22;57639;52.410;-1.966;2022-12-01T17:19:36;17.60;53.20
61591;DHT22;57639;52.410;-1.966;2022-12-01T17:22:41;17.60;53.20
61591;DHT22;57639;52.410;-1.966;2022-12-01T17:25:47;17.70;53.40
61591;DHT22;57639;52.410;-1.966;2022-12-01T17:28:53;17.80;53.50
61591;DHT22;57639;52.410;-1.966;2022-12-01T17:31:57;17.90;53.40
61591;DHT22;57639;52.410;-1.966;2022-12-01T17:35:07;18.00;53.30
61591;DHT22;57639;52.410;-1.966;2022-12-01T17:38:11;18.10;53.00
61591;DHT22;57639;52.410;-1.966;2022-12-01T17:41:19;18.10;53.20
61591;DHT22;57639;52.410;-1.966;2022-12-01T17:44:28;18.20;53.10
61591;DHT22;57639;52.410;-1.966;2022-12-01T17:47:36;18.20;52.90
61591;DHT22;57639;52.410;-1.966;2022-12-01T17:50:43;18.30;53.00
61591;DHT22;57639;52.410;-1.966;2022-12-01T17:53:49;18.40;52.90
61591;DHT22;57639;52.410;-1.966;2022-12-01T17:57:02;18.40;53.00
61591;DHT22;57639;52.410;-1.966;2022-12-01T18:00:13;18.40;53.00
61591;DHT22;57639;52.410;-1.966;2022-12-01T18:03:19;18.40;52.80
61591;DHT22;57639;52.410;-1.966;2022-12-01T18:06:28;18.50;52.80
61591;DHT22;57639;52.410;-1.966;2022-12-01T18:09:38;18.40;52.90
61591;DHT22;57639;52.410;-1.966;2022-12-01T18:12:44;18.40;52.80
61591;DHT22;57639;52.410;-1.966;2022-12-01T18:15:48;18.40;52.70
61591;DHT22;57639;52.410;-1.966;2022-12-01T18:18:56;18.40;52.90
61591;DHT22;57639;52.410;-1.966;2022-12-01T18:22:03;18.40;52.70
61591;DHT22;57639;52.410;-1.966;2022-12-01T18:25:16;18.40;52.70
61591;DHT22;57639;52.410;-1.966;2022-12-01T18:28:44;18.30;52.80
61591;DHT22;57639;52.410;-1.966;2022-12-01T18:31:52;18.30;52.90
61591;DHT22;57639;52.410;-1.966;2022-12-01T18:34:57;18.30;52.90
61591;DHT22;57639;52.410;-1.966;2022-12-01T18:38:09;18.20;53.00
61591;DHT22;57639;52.410;-1.966;2022-12-01T18:41:14;18.20;53.10
61591;DHT22;57639;52.410;-1.966;2022-12-01T18:44:24;18.20;53.10
61591;DHT22;57639;52.410;-1.966;2022-12-01T18:47:28;18.20;53.30
61591;DHT22;57639;52.410;-1.966;2022-12-01T18:50:35;18.40;53.30
61591;DHT22;57639;52.410;-1.966;2022-12-01T18:53:43;18.40;53.40
61591;DHT22;57639;52.410;-1.966;2022-12-01T18:56:59;18.50;53.60
61591;DHT22;57639;52.410;-1.966;2022-12-01T19:00:06;18.60;53.80
61591;DHT22;57639;52.410;-1.966;2022-12-01T19:03:15;18.60;54.00
61591;DHT22;57639;52.410;-1.966;2022-12-01T19:06:23;18.70;54.40
61591;DHT22;57639;52.410;-1.966;2022-12-01T19:09:34;18.80;54.80
61591;DHT22;57639;52.410;-1.966;2022-12-01T19:12:40;18.80;54.90
61591;DHT22;57639;52.410;-1.966;2022-12-01T19:15:49;18.80;55.30
61591;DHT22;57639;52.410;-1.966;2022-12-01T19:19:02;18.80;55.80
61591;DHT22;57639;52.410;-1.966;2022-12-01T19:22:14;18.90;56.20
61591;DHT22;57639;52.410;-1.966;2022-12-01T19:25:21;18.80;55.80
61591;DHT22;57639;52.410;-1.966;2022-12-01T19:28:31;18.80;55.60
61591;DHT22;57639;52.410;-1.966;2022-12-01T19:31:38;18.90;55.20
61591;DHT22;57639;52.410;-1.966;2022-12-01T19:34:45;18.80;55.10
61591;DHT22;57639;52.410;-1.966;2022-12-01T19:37:49;18.80;55.20
61591;DHT22;57639;52.410;-1.966;2022-12-01T19:40:59;18.80;55.20
61591;DHT22;57639;52.410;-1.966;2022-12-01T19:44:07;18.70;54.70